createdAt,value
2022-09-14T00:00:10.268Z,4.72
2022-09-14T00:02:42.827Z,4.18
2022-09-14T00:05:13.233Z,6.10
2022-09-14T00:07:43.648Z,5.80
2022-09-14T00:10:14.069Z,4.47
2022-09-14T00:12:44.317Z,5.28
2022-09-14T00:15:17.289Z,4.18
2022-09-14T00:17:47.549Z,4.45
2022-09-14T00:20:17.789Z,6.85
2022-09-14T00:22:48.631Z,6.93
2022-09-14T00:25:18.858Z,6.20
2022-09-14T00:27:49.061Z,7.43
2022-09-14T00:30:23.747Z,5.85
2022-09-14T00:32:54.794Z,3.75
2022-09-14T00:35:24.868Z,5.28
2022-09-14T00:37:55.092Z,7.57
2022-09-14T00:40:25.982Z,7.25
2022-09-14T00:42:56.509Z,4.32
2022-09-14T00:45:31.246Z,6.75
2022-09-14T00:48:01.488Z,6.70
2022-09-14T00:50:31.676Z,3.45
2022-09-14T00:53:01.885Z,4.38
2022-09-14T00:55:32.341Z,3.30
2022-09-14T00:58:02.683Z,5.97
2022-09-14T01:00:35.516Z,4.10
2022-09-14T01:03:05.791Z,4.95
2022-09-14T01:05:52.974Z,3.83
2022-09-14T01:08:36.068Z,7.30
2022-09-14T01:11:19.975Z,5.00
2022-09-14T01:13:58.919Z,3.47
2022-09-14T01:16:40.599Z,5.63
2022-09-14T01:19:21.924Z,8.93
2022-09-14T01:22:02.690Z,5.32
2022-09-14T01:24:45.662Z,6.13
2022-09-14T01:27:28.189Z,6.22
2022-09-14T01:30:09.600Z,4.60
2022-09-14T01:32:45.755Z,6.50
2022-09-14T01:35:22.578Z,3.03
2022-09-14T01:37:56.890Z,7.55
2022-09-14T01:40:33.091Z,5.45
2022-09-14T01:43:10.973Z,4.25
2022-09-14T01:45:45.360Z,6.10
2022-09-14T01:48:18.974Z,7.45
2022-09-14T01:50:51.652Z,5.63
2022-09-14T01:53:26.294Z,8.15
2022-09-14T01:56:01.821Z,3.72
2022-09-14T01:58:39.688Z,5.78
2022-09-14T02:01:14.534Z,4.07
2022-09-14T02:03:49.746Z,4.70
2022-09-14T02:06:26.123Z,5.35
2022-09-14T02:08:56.857Z,6.93
2022-09-14T02:13:59.578Z,4.68
2022-09-14T02:16:30.226Z,4.95
2022-09-14T02:21:34.489Z,4.07
2022-09-14T02:24:05.752Z,7.40
2022-09-14T02:26:36.648Z,2.92
2022-09-14T02:29:09.552Z,6.35
2022-09-14T02:31:57.129Z,5.38
2022-09-14T02:34:33.657Z,4.82
2022-09-14T02:37:13.320Z,7.35
2022-09-14T02:39:50.782Z,10.75
2022-09-14T02:42:31.712Z,4.45
2022-09-14T02:45:11.327Z,7.50
2022-09-14T02:47:50.203Z,6.22
2022-09-14T02:50:26.718Z,6.25
2022-09-14T02:53:04.587Z,8.48
2022-09-14T02:55:40.186Z,7.97
2022-09-14T02:58:12.070Z,7.82
2022-09-14T03:00:46.558Z,5.07
2022-09-14T03:03:18.875Z,4.88
2022-09-14T03:05:49.255Z,6.43
2022-09-14T03:08:19.593Z,6.38
2022-09-14T03:10:49.806Z,5.63
2022-09-14T03:13:20.429Z,7.57
2022-09-14T03:15:53.375Z,5.97
2022-09-14T03:18:23.904Z,7.05
2022-09-14T03:20:53.989Z,10.40
2022-09-14T03:23:24.213Z,6.70
2022-09-14T03:25:54.457Z,9.55
2022-09-14T03:28:24.737Z,6.82
2022-09-14T03:30:57.541Z,13.77
2022-09-14T03:33:27.891Z,7.03
2022-09-14T03:35:57.936Z,10.45
2022-09-14T03:38:30.315Z,8.48
2022-09-14T03:41:00.441Z,8.20
2022-09-14T03:43:31.218Z,7.55
2022-09-14T03:48:37.638Z,6.90
2022-09-14T03:51:09.836Z,14.73
2022-09-14T03:53:40.850Z,6.63
2022-09-14T03:56:12.370Z,5.47
2022-09-14T03:58:42.755Z,5.35
2022-09-14T04:01:17.404Z,5.90
2022-09-14T04:03:48.486Z,5.03
2022-09-14T04:06:19.240Z,5.88
2022-09-14T04:11:22.214Z,12.60
2022-09-14T04:13:53.214Z,10.23
2022-09-14T04:16:26.107Z,11.55
2022-09-14T04:18:56.893Z,9.55
2022-09-14T04:21:28.493Z,7.43
2022-09-14T04:24:14.490Z,6.40
2022-09-14T04:26:46.735Z,7.63
2022-09-14T04:29:17.424Z,11.00
2022-09-14T04:31:50.359Z,7.88
2022-09-14T04:34:20.766Z,9.73
2022-09-14T04:36:50.879Z,9.15
2022-09-14T04:39:21.616Z,9.93
2022-09-14T04:41:52.127Z,8.63
2022-09-14T04:44:22.347Z,6.53
2022-09-14T04:46:55.366Z,9.57
2022-09-14T04:49:25.579Z,6.15
2022-09-14T04:51:55.665Z,10.82
2022-09-14T04:54:25.845Z,8.13
2022-09-14T04:56:55.971Z,6.95
2022-09-14T04:59:26.271Z,8.65
2022-09-14T05:01:59.055Z,9.32
2022-09-14T05:04:29.392Z,7.97
2022-09-14T05:06:59.389Z,11.13
2022-09-14T05:09:29.435Z,6.93
2022-09-14T05:11:59.477Z,7.10
2022-09-14T05:14:29.651Z,8.70
2022-09-14T05:17:03.284Z,9.52
2022-09-14T05:19:33.580Z,6.60
2022-09-14T05:22:03.545Z,8.60
2022-09-14T05:24:33.701Z,10.48
2022-09-14T05:27:03.630Z,8.50
2022-09-14T05:29:33.778Z,20.70
2022-09-14T05:32:06.628Z,7.03
2022-09-14T05:34:36.906Z,8.65
2022-09-14T05:37:06.901Z,7.28
2022-09-14T05:39:36.863Z,5.28
2022-09-14T05:42:07.129Z,6.55
2022-09-14T05:44:37.107Z,7.78
2022-09-14T05:47:09.729Z,8.98
2022-09-14T05:49:39.867Z,7.40
2022-09-14T05:52:09.859Z,11.77
2022-09-14T05:54:39.848Z,7.68
2022-09-14T05:57:09.879Z,7.45
2022-09-14T05:59:39.945Z,11.88
2022-09-14T06:02:17.455Z,8.60
2022-09-14T06:04:49.141Z,12.05
2022-09-14T06:07:19.273Z,13.25
2022-09-14T06:09:49.428Z,7.40
2022-09-14T06:12:19.444Z,8.70
2022-09-14T06:14:49.571Z,8.20
2022-09-14T06:17:22.227Z,6.85
2022-09-14T06:19:52.306Z,11.25
2022-09-14T06:22:22.331Z,7.90
2022-09-14T06:24:52.639Z,11.40
2022-09-14T06:27:22.746Z,8.02
2022-09-14T06:29:54.197Z,10.98
2022-09-14T06:32:27.454Z,8.60
2022-09-14T06:34:57.439Z,9.18
2022-09-14T06:37:27.430Z,8.65
2022-09-14T06:39:57.514Z,11.15
2022-09-14T06:42:27.511Z,9.80
2022-09-14T06:44:57.551Z,10.18
2022-09-14T06:47:34.819Z,9.90
2022-09-14T06:50:05.073Z,11.88
2022-09-14T06:52:35.011Z,12.57
2022-09-14T06:55:05.093Z,11.70
2022-09-14T06:57:35.054Z,9.38
2022-09-14T07:00:05.807Z,9.35
2022-09-14T07:02:38.455Z,9.77
2022-09-14T07:05:09.042Z,10.25
2022-09-14T07:07:39.164Z,13.93
2022-09-14T07:10:11.806Z,13.73
2022-09-14T07:12:41.905Z,10.77
2022-09-14T07:15:12.701Z,19.15
2022-09-14T07:17:48.021Z,11.02
2022-09-14T07:20:18.361Z,11.73
2022-09-14T07:22:48.291Z,10.18
2022-09-14T07:25:18.453Z,16.33
2022-09-14T07:27:48.419Z,12.88
2022-09-14T07:30:18.728Z,9.20
2022-09-14T07:32:51.277Z,8.82
2022-09-14T07:35:21.283Z,10.10
2022-09-14T07:37:51.302Z,9.18
2022-09-14T07:40:23.190Z,8.23
2022-09-14T07:42:57.634Z,9.10
2022-09-14T07:45:27.995Z,6.78
2022-09-14T07:48:01.066Z,9.25
2022-09-14T07:50:31.117Z,8.07
2022-09-14T07:53:01.088Z,9.73
2022-09-14T07:55:31.220Z,7.90
2022-09-14T07:58:01.370Z,7.72
2022-09-14T08:00:31.685Z,7.15
2022-09-14T08:03:04.408Z,9.52
2022-09-14T08:05:34.521Z,7.82
2022-09-14T08:08:04.837Z,7.03
2022-09-14T08:10:38.230Z,6.65
2022-09-14T08:13:08.455Z,7.68
2022-09-14T08:15:39.995Z,6.70
2022-09-14T08:18:12.752Z,7.65
2022-09-14T08:20:42.996Z,7.13
2022-09-14T08:23:13.334Z,8.25
2022-09-14T08:25:43.419Z,7.53
2022-09-14T08:28:13.556Z,8.30
2022-09-14T08:30:43.772Z,9.18
2022-09-14T08:33:16.541Z,9.30
2022-09-14T08:35:57.963Z,6.75
2022-09-14T08:38:28.398Z,6.50
2022-09-14T08:40:59.414Z,7.63
2022-09-14T08:43:30.794Z,6.75
2022-09-14T08:46:07.516Z,7.15
2022-09-14T08:48:51.029Z,6.47
2022-09-14T08:51:21.418Z,9.63
2022-09-14T08:53:53.759Z,6.57
2022-09-14T08:56:28.011Z,7.00
2022-09-14T08:59:26.892Z,6.47
2022-09-14T09:02:08.619Z,5.88
2022-09-14T09:04:49.078Z,8.52
2022-09-14T09:07:25.508Z,7.32
2022-09-14T09:09:59.147Z,7.85
2022-09-14T09:12:37.613Z,6.90
2022-09-14T09:15:18.962Z,8.18
2022-09-14T09:17:51.574Z,6.78
2022-09-14T09:20:27.103Z,8.40
2022-09-14T09:23:14.844Z,9.02
2022-09-14T09:25:58.094Z,3.75
2022-09-14T09:28:29.499Z,3.10
2022-09-14T09:31:05.063Z,2.03
2022-09-14T09:33:36.061Z,4.00
2022-09-14T09:38:39.118Z,1.70
2022-09-14T09:41:16.503Z,2.80
2022-09-14T09:46:34.425Z,2.97
2022-09-14T09:49:08.039Z,2.13
2022-09-14T09:51:41.076Z,1.83
2022-09-14T09:54:21.495Z,2.92
2022-09-14T09:56:56.421Z,2.90
2022-09-14T09:59:35.463Z,3.22
2022-09-14T10:02:27.110Z,2.30
2022-09-14T10:05:03.071Z,3.63
2022-09-14T10:07:38.682Z,3.45
2022-09-14T10:10:11.209Z,3.28
2022-09-14T10:12:48.253Z,4.72
2022-09-14T10:15:21.615Z,2.92
2022-09-14T10:18:09.838Z,2.10
2022-09-14T10:20:41.476Z,2.95
2022-09-14T10:23:29.072Z,2.80
2022-09-14T10:26:24.945Z,2.85
2022-09-14T10:28:55.426Z,7.07
2022-09-14T10:31:32.088Z,2.92
2022-09-14T10:34:03.147Z,4.03
2022-09-14T10:36:34.860Z,4.18
2022-09-14T10:39:22.043Z,3.53
2022-09-14T10:44:55.187Z,9.13
2022-09-14T10:47:52.702Z,7.75
2022-09-14T10:50:35.619Z,5.70
2022-09-14T10:53:15.207Z,9.25
2022-09-14T10:55:54.440Z,6.78
2022-09-14T10:58:36.576Z,7.90
2022-09-14T11:01:24.284Z,5.57
2022-09-14T11:04:04.895Z,4.07
2022-09-14T11:06:46.847Z,5.15
2022-09-14T11:09:24.989Z,7.38
2022-09-14T11:12:07.931Z,5.10
2022-09-14T11:14:49.925Z,6.53
2022-09-14T11:17:37.678Z,7.00
2022-09-14T11:20:16.955Z,5.03
2022-09-14T11:22:52.506Z,4.80
2022-09-14T11:25:26.203Z,6.47
2022-09-14T11:28:02.841Z,6.72
2022-09-14T11:30:41.134Z,6.78
2022-09-14T11:33:21.494Z,7.88
2022-09-14T11:35:56.229Z,8.63
2022-09-14T11:38:31.048Z,9.25
2022-09-14T11:41:05.740Z,6.53
2022-09-14T11:43:45.491Z,10.90
2022-09-14T11:46:19.248Z,9.38
2022-09-14T11:48:56.377Z,8.50
2022-09-14T11:51:30.007Z,6.72
2022-09-14T11:54:00.175Z,8.85
2022-09-14T11:56:32.389Z,7.55
2022-09-14T11:59:07.290Z,8.07
2022-09-14T12:01:39.482Z,6.97
2022-09-14T12:04:17.982Z,7.70
2022-09-14T12:06:58.851Z,5.93
2022-09-14T12:09:43.074Z,6.30
2022-09-14T12:12:48.968Z,16.88
2022-09-14T12:15:37.031Z,7.75
2022-09-14T12:18:26.149Z,7.88
2022-09-14T12:21:09.026Z,6.45
2022-09-14T12:23:52.558Z,8.13
2022-09-14T12:26:41.502Z,7.15
2022-09-14T12:29:30.791Z,7.78
2022-09-14T12:32:41.006Z,5.93
2022-09-14T12:35:41.009Z,7.85
2022-09-14T12:38:44.034Z,10.07
2022-09-14T12:41:44.079Z,9.95
2022-09-14T12:44:32.541Z,8.13
2022-09-14T12:47:37.724Z,7.55
2022-09-14T12:50:17.379Z,9.82
2022-09-14T12:52:59.796Z,9.00
2022-09-14T12:55:48.942Z,9.95
2022-09-14T12:58:32.532Z,8.38
2022-09-14T13:01:20.629Z,6.38
2022-09-14T13:03:53.607Z,8.80
2022-09-14T13:06:33.275Z,9.95
2022-09-14T13:09:08.920Z,7.28
2022-09-14T13:11:43.968Z,9.18
2022-09-14T13:14:20.886Z,9.88
2022-09-14T13:16:53.044Z,8.38
2022-09-14T13:19:26.590Z,8.82
2022-09-14T13:22:02.289Z,8.77
2022-09-14T13:24:35.020Z,7.93
2022-09-14T13:27:07.199Z,9.85
2022-09-14T13:29:37.541Z,8.68
2022-09-14T13:32:07.862Z,7.80
2022-09-14T13:34:41.641Z,8.70
2022-09-14T13:37:17.538Z,10.20
2022-09-14T13:39:54.081Z,8.57
2022-09-14T13:42:26.202Z,9.95
2022-09-14T13:44:56.885Z,9.95
2022-09-14T13:47:28.648Z,9.25
2022-09-14T13:50:00.549Z,9.68
2022-09-14T13:53:00.615Z,9.20
2022-09-14T13:55:31.359Z,9.27
2022-09-14T13:58:27.068Z,9.88
2022-09-14T14:01:04.324Z,9.75
2022-09-14T14:03:38.908Z,9.50
2022-09-14T14:06:23.940Z,8.65
2022-09-14T14:09:09.643Z,11.25
2022-09-14T14:11:42.258Z,8.68
2022-09-14T14:14:21.632Z,10.65
2022-09-14T14:17:21.798Z,11.68
2022-09-14T14:19:52.544Z,10.95
2022-09-14T14:22:24.556Z,12.32
2022-09-14T14:25:14.565Z,11.75
2022-09-14T14:27:47.273Z,12.48
2022-09-14T14:30:20.459Z,13.20
2022-09-14T14:32:53.764Z,18.33
2022-09-14T14:35:26.996Z,11.35
2022-09-14T14:37:57.974Z,10.18
2022-09-14T14:40:32.316Z,12.10
2022-09-14T14:43:04.595Z,12.88
2022-09-14T14:45:36.673Z,14.18
2022-09-14T14:48:08.624Z,14.35
2022-09-14T14:50:38.870Z,13.15
2022-09-14T14:53:09.689Z,15.32
2022-09-14T14:58:18.880Z,14.60
2022-09-14T15:00:50.194Z,13.20
2022-09-14T15:03:21.644Z,13.90
2022-09-14T15:05:52.676Z,16.48
2022-09-14T15:08:23.168Z,11.43
2022-09-14T15:10:59.204Z,14.85
2022-09-14T15:13:29.555Z,13.63
2022-09-14T15:15:59.687Z,16.00
2022-09-14T15:18:29.964Z,10.55
2022-09-14T15:21:00.374Z,15.32
2022-09-14T15:23:30.653Z,12.85
2022-09-14T15:26:03.476Z,15.52
2022-09-14T15:28:36.002Z,11.82
2022-09-14T15:31:07.874Z,12.50
2022-09-14T15:33:38.444Z,13.23
2022-09-14T15:36:08.895Z,7.68
2022-09-14T15:38:39.047Z,9.65
2022-09-14T15:41:14.188Z,10.65
2022-09-14T15:43:46.267Z,12.15
2022-09-14T15:46:16.276Z,8.13
2022-09-14T15:48:46.373Z,8.70
2022-09-14T15:51:17.290Z,8.27
2022-09-14T15:53:48.199Z,9.57
2022-09-14T15:56:21.228Z,8.48
2022-09-14T15:58:51.400Z,8.27
2022-09-14T16:01:22.897Z,9.77
2022-09-14T16:03:58.408Z,8.93
2022-09-14T16:06:28.779Z,29.00
2022-09-14T16:08:59.645Z,7.22
2022-09-14T16:11:32.647Z,10.80
2022-09-14T16:14:02.946Z,9.48
2022-09-14T16:16:33.200Z,7.22
2022-09-14T16:19:08.900Z,8.63
2022-09-14T16:21:39.423Z,8.05
2022-09-14T16:24:11.855Z,9.60
2022-09-14T16:26:45.270Z,9.82
2022-09-14T16:29:18.837Z,8.60
2022-09-14T16:31:51.036Z,7.95
2022-09-14T16:34:24.083Z,7.10
2022-09-14T16:36:55.516Z,19.95
2022-09-14T16:39:28.118Z,26.67
2022-09-14T16:42:00.817Z,8.52
2022-09-14T16:44:31.682Z,7.88
2022-09-14T16:49:31.824Z,8.18
2022-09-14T16:52:02.785Z,7.43
2022-09-14T16:54:33.289Z,8.30
2022-09-14T16:57:06.307Z,11.85
2022-09-14T16:59:36.575Z,8.80
2022-09-14T17:02:06.994Z,8.13
2022-09-14T17:04:37.485Z,9.65
2022-09-14T17:07:07.957Z,12.23
2022-09-14T17:09:38.403Z,7.78
2022-09-14T17:12:11.703Z,10.30
2022-09-14T17:14:42.535Z,9.13
2022-09-14T17:19:43.763Z,8.73
2022-09-14T17:22:14.246Z,9.00
2022-09-14T17:24:44.401Z,15.93
2022-09-14T17:27:18.925Z,10.20
2022-09-14T17:29:49.285Z,8.70
2022-09-14T17:32:19.582Z,8.30
2022-09-14T17:34:50.024Z,8.32
2022-09-14T17:37:20.130Z,9.50
2022-09-14T17:39:51.008Z,9.90
2022-09-14T17:42:23.846Z,8.45
2022-09-14T17:44:54.043Z,11.85
2022-09-14T17:47:26.546Z,12.00
2022-09-14T17:49:56.665Z,10.75
2022-09-14T17:52:26.859Z,9.85
2022-09-14T17:54:57.038Z,8.27
2022-09-14T17:57:29.906Z,7.60
2022-09-14T18:00:00.064Z,21.42
2022-09-14T18:02:30.240Z,23.50
2022-09-14T18:05:00.631Z,11.93
2022-09-14T18:07:31.355Z,16.20
2022-09-14T18:10:01.580Z,10.38
2022-09-14T18:12:36.594Z,11.85
2022-09-14T18:15:07.750Z,12.55
2022-09-14T18:17:37.969Z,12.57
2022-09-14T18:20:09.812Z,10.75
2022-09-14T18:22:40.326Z,12.65
2022-09-14T18:25:12.361Z,14.18
2022-09-14T18:27:45.127Z,12.95
2022-09-14T18:30:16.617Z,11.10
2022-09-14T18:32:47.291Z,10.60
2022-09-14T18:35:18.033Z,11.45
2022-09-14T18:37:48.110Z,17.88
2022-09-14T18:40:20.404Z,12.32
2022-09-14T18:42:53.327Z,12.70
2022-09-14T18:45:23.602Z,12.13
2022-09-14T18:47:53.725Z,9.77
2022-09-14T18:50:23.962Z,12.45
2022-09-14T18:52:54.396Z,11.25
2022-09-14T18:55:25.229Z,10.30
2022-09-14T19:00:28.327Z,10.10
2022-09-14T19:03:00.099Z,13.60
2022-09-14T19:05:32.210Z,14.38
2022-09-14T19:08:03.099Z,11.35
2022-09-14T19:13:06.106Z,13.27
2022-09-14T19:15:37.120Z,11.90
2022-09-14T19:18:07.663Z,13.50
2022-09-14T19:21:04.817Z,12.30
2022-09-14T19:23:31.598Z,11.57
2022-09-14T19:26:06.460Z,14.85
2022-09-14T19:28:39.963Z,21.50
2022-09-14T19:31:11.804Z,22.27
2022-09-14T19:33:45.442Z,11.48
2022-09-14T19:36:20.043Z,13.05
2022-09-14T19:38:51.633Z,10.55
2022-09-14T19:41:23.196Z,10.50
2022-09-14T19:43:56.245Z,11.73
2022-09-14T19:46:29.384Z,9.70
2022-09-14T19:49:45.915Z,11.30
2022-09-14T19:54:58.496Z,13.65
2022-09-14T19:57:28.768Z,11.85
2022-09-14T20:00:01.690Z,10.75
2022-09-14T20:02:32.049Z,10.80
2022-09-14T20:05:02.378Z,12.68
2022-09-14T20:07:32.777Z,11.38
2022-09-14T20:10:03.017Z,14.77
2022-09-14T20:12:33.373Z,10.63
2022-09-14T20:15:06.390Z,11.07
2022-09-14T20:17:36.614Z,11.82
2022-09-14T20:20:07.167Z,11.55
2022-09-14T20:22:37.468Z,13.95
2022-09-14T20:25:08.704Z,9.23
2022-09-14T20:27:39.258Z,11.63
2022-09-14T20:30:13.706Z,13.02
2022-09-14T20:32:44.030Z,10.18
2022-09-14T20:35:14.198Z,10.98
2022-09-14T20:37:44.515Z,14.48
2022-09-14T20:40:14.830Z,10.30
2022-09-14T20:42:45.052Z,11.57
2022-09-14T20:45:18.421Z,8.38
2022-09-14T20:47:48.574Z,11.23
2022-09-14T20:50:18.931Z,10.10
2022-09-14T20:52:49.164Z,11.80
2022-09-14T20:55:19.858Z,13.20
2022-09-14T20:57:50.127Z,10.90
2022-09-14T21:00:23.174Z,11.60
2022-09-14T21:02:54.717Z,13.90
2022-09-14T21:05:25.345Z,14.50
2022-09-14T21:07:57.049Z,11.10
2022-09-14T21:10:29.355Z,11.90
2022-09-14T21:12:59.949Z,11.05
2022-09-14T21:15:35.122Z,9.25
2022-09-14T21:18:05.530Z,14.48
2022-09-14T21:20:39.124Z,14.30
2022-09-14T21:23:09.763Z,12.68
2022-09-14T21:25:40.039Z,11.98
2022-09-14T21:28:10.407Z,12.00
2022-09-14T21:30:43.194Z,9.48
2022-09-14T21:33:13.364Z,12.10
2022-09-14T21:35:43.563Z,10.07
2022-09-14T21:38:13.875Z,11.10
2022-09-14T21:40:47.622Z,11.05
2022-09-14T21:43:17.799Z,10.70
2022-09-14T21:45:51.498Z,10.02
2022-09-14T21:48:22.033Z,10.98
2022-09-14T21:50:52.203Z,11.38
2022-09-14T21:53:22.533Z,12.15
2022-09-14T21:55:52.737Z,7.88
2022-09-14T21:58:23.075Z,10.15
2022-09-14T22:01:01.562Z,9.40
2022-09-14T22:03:32.262Z,12.25
2022-09-14T22:06:04.319Z,12.75
2022-09-14T22:08:38.564Z,9.50
2022-09-14T22:11:10.377Z,9.73
2022-09-14T22:13:41.330Z,11.80
2022-09-14T22:18:51.955Z,11.18
2022-09-14T22:21:22.791Z,13.68
2022-09-14T22:23:53.850Z,11.95
2022-09-14T22:26:24.699Z,9.65
2022-09-14T22:31:30.139Z,8.85
2022-09-14T22:34:01.446Z,9.30
2022-09-14T22:36:31.923Z,9.85
2022-09-14T22:39:03.527Z,12.23
2022-09-14T22:41:33.884Z,10.82
2022-09-14T22:44:05.116Z,11.05
2022-09-14T22:46:38.834Z,11.43
2022-09-14T22:49:09.159Z,11.48
2022-09-14T22:51:39.343Z,9.05
2022-09-14T22:54:09.955Z,10.07
2022-09-14T22:56:41.655Z,11.32
2022-09-14T22:59:12.894Z,11.18
2022-09-14T23:01:45.669Z,9.65
2022-09-14T23:04:17.117Z,10.27
2022-09-14T23:06:48.954Z,9.80
2022-09-14T23:09:22.296Z,10.52
2022-09-14T23:11:53.274Z,12.52
2022-09-14T23:14:24.350Z,11.70
2022-09-14T23:16:57.213Z,10.93
2022-09-14T23:19:27.473Z,12.38
2022-09-14T23:21:57.610Z,9.43
2022-09-14T23:24:27.750Z,9.63
2022-09-14T23:26:57.976Z,10.13
2022-09-14T23:29:28.320Z,9.65
2022-09-14T23:32:01.013Z,8.77
2022-09-14T23:34:31.302Z,6.70
2022-09-14T23:37:01.851Z,9.38
2022-09-14T23:39:32.500Z,8.02
2022-09-14T23:42:04.057Z,9.38
2022-09-14T23:44:34.265Z,7.80
2022-09-14T23:47:07.163Z,10.38
2022-09-14T23:49:37.520Z,12.85
2022-09-14T23:52:07.845Z,9.18
2022-09-14T23:54:38.028Z,8.27
2022-09-14T23:57:08.325Z,10.73
2022-09-14T23:59:38.581Z,7.93
